Uno Mas — WDB8447 — position and weather

sailwx.info

Track history (hours):
 
Tides and Currents Weather Stations Pressure Air Temp Water Temp Dewpoint Dewpoint Depression Visibility Wind Speed Wind Dir Waves Ship Positions

Uno Mas

Owner: mccarty iii, george d, ingleside, TX. More information available from US FCC via Universal Licensing System and Coast Guard Vessel Documentation Center.

Last reported at 2018-Jun-07 02:58 UTC. Time now 2018-Jun-18 22:39 UTC.
Position N 29°32' W 090°52'.
Warning: this ship's position is 11 days out of date.

Date/timePositionNaut miles runAvg speedWind from/ knotsBaromVisibWave heightAir tempDewpointWater temp
2018-Jun-07 02:58N 29°32' W 090°52'  
2018-Jun-02 03:48N 29°36' W 090°58'2 5.5
2018-Jun-02 03:24N 29°34' W 090°57'2 5.9
2018-Jun-02 03:00N 29°33' W 090°54'3 6.0
2018-Jun-02 02:30N 29°32' W 090°51'3 6.2
2018-Jun-02 02:00N 29°32' W 090°47'3 5.3
2018-Jun-02 01:30N 29°34' W 090°45'2 4.9
2018-Jun-02 01:00N 29°35' W 090°43'2 3.8
2018-Jun-02 00:31N 29°37' W 090°41'3 5.8
2018-Jun-02 00:00N 29°35' W 090°38'3 5.2
2018-Jun-01 23:30N 29°35' W 090°35'3 5.9
2018-Jun-01 23:00N 29°34' W 090°32'7 0.4
2018-Jun-01 06:06N 29°33' W 090°24'0 1.0
2018-Jun-01 05:36N 29°33' W 090°25'2 1.9
2018-Jun-01 04:47N 29°33' W 090°26'2 5.6
2018-Jun-01 04:30N 29°33' W 090°28'3 6.6
2018-Jun-01 04:00N 29°34' W 090°32'3 6.5
2018-Jun-01 03:30N 29°35' W 090°36'3 5.9
2018-Jun-01 03:00N 29°36' W 090°39'3 6.4
2018-Jun-01 02:30N 29°37' W 090°42'3 5.4
2018-Jun-01 02:00N 29°34' W 090°43'0 0.0
2018-Jun-01 01:31N 29°34' W 090°43'0 0.0
2018-Jun-01 01:00N 29°34' W 090°43'2 4.6
2018-Jun-01 00:30N 29°32' W 090°42'3 6.5
2018-Jun-01 00:00N 29°29' W 090°43'3 6.8
2018-May-31 23:30N 29°25' W 090°43'3 0.1
2018-May-30 23:05N 29°23' W 090°44'2 6.1
2018-May-30 22:46N 29°25' W 090°44'2 7.2
2018-May-30 22:30N 29°27' W 090°43'4 7.1
2018-May-30 22:00N 29°30' W 090°43'3 6.9
2018-May-30 21:30N 29°33' W 090°43'1 3.0
2018-May-30 21:00N 29°35' W 090°43'0 0.0
2018-May-30 20:30N 29°35' W 090°43'0 0.0
2018-May-30 20:00N 29°35' W 090°43'0 0.2
2018-May-30 19:30N 29°35' W 090°43'2 4.0
2018-May-30 19:00N 29°34' W 090°45'2 4.0
2018-May-30 18:30N 29°32' W 090°46'4 7.4
2018-May-30 18:00N 29°32' W 090°51'8 0.8
2018-May-30 08:35N 29°36' W 090°58'1 5.9
2018-May-30 08:22N 29°35' W 090°58'2 5.9
2018-May-30 08:00N 29°34' W 090°56'3 5.9
2018-May-30 07:30N 29°32' W 090°53'3 5.7
2018-May-30 06:59N 29°32' W 090°49'3 5.5
2018-May-30 06:30N 29°32' W 090°46'3 5.0
2018-May-30 06:00N 29°34' W 090°44'2 3.7
2018-May-30 05:30N 29°35' W 090°43'2 3.1
2018-May-30 05:00N 29°37' W 090°42'1 2.0
2018-May-30 04:30N 29°36' W 090°41'2 4.3
2018-May-30 04:00N 29°36' W 090°39'3 5.3
2018-May-30 03:29N 29°35' W 090°36'2 5.3
2018-May-30 03:00N 29°34' W 090°33'3 5.5
2018-May-30 02:30N 29°34' W 090°30'2 0.1
2018-May-28 19:10N 29°33' W 090°28'1 7.2
2018-May-28 18:59N 29°34' W 090°29'3 7.3
2018-May-28 18:30N 29°34' W 090°33'3 6.8
2018-May-28 18:00N 29°35' W 090°37'4 7.0
2018-May-28 17:30N 29°36' W 090°40'0 0.2
2018-May-28 17:00N 29°36' W 090°41'0 0.0
2018-May-28 16:30N 29°36' W 090°41'0 0.0
2018-May-28 16:00N 29°36' W 090°41'0 0.0
2018-May-28 15:30N 29°36' W 090°41'1 1.4
2018-May-28 15:00N 29°36' W 090°41'2 4.5
2018-May-28 14:30N 29°35' W 090°43'0 0.1
2018-May-28 14:00N 29°35' W 090°43'0 0.2
2018-May-28 13:30N 29°35' W 090°43'3 5.8
2018-May-28 13:00N 29°33' W 090°45'4 6.8
2018-May-28 12:30N 29°32' W 090°49'4 7.4
2018-May-28 11:53N 29°33' W 090°54'  
Track history (hours):
 
Tides and Currents Weather Stations Pressure Air Temp Water Temp Dewpoint Dewpoint Depression Visibility Wind Speed Wind Dir Waves Ship Positions

Uno Mas

Owner: mccarty iii, george d, ingleside, TX. More information available from US FCC via Universal Licensing System and Coast Guard Vessel Documentation Center.

Last reported at 2018-Jun-07 02:58 UTC. Time now 2018-Jun-18 22:39 UTC.
Position N 29°32' W 090°52'.
Warning: this ship's position is 11 days out of date.

Date/timePositionNaut miles runAvg speedWind from/ knotsBaromVisibWave heightAir tempDewpointWater temp
2018-Jun-07 02:58N 29°32' W 090°52'  
2018-Jun-02 03:48N 29°36' W 090°58'2 5.5
2018-Jun-02 03:24N 29°34' W 090°57'2 5.9
2018-Jun-02 03:00N 29°33' W 090°54'3 6.0
2018-Jun-02 02:30N 29°32' W 090°51'3 6.2
2018-Jun-02 02:00N 29°32' W 090°47'3 5.3
2018-Jun-02 01:30N 29°34' W 090°45'2 4.9
2018-Jun-02 01:00N 29°35' W 090°43'2 3.8
2018-Jun-02 00:31N 29°37' W 090°41'3 5.8
2018-Jun-02 00:00N 29°35' W 090°38'3 5.2
2018-Jun-01 23:30N 29°35' W 090°35'3 5.9
2018-Jun-01 23:00N 29°34' W 090°32'7 0.4
2018-Jun-01 06:06N 29°33' W 090°24'0 1.0
2018-Jun-01 05:36N 29°33' W 090°25'2 1.9
2018-Jun-01 04:47N 29°33' W 090°26'2 5.6
2018-Jun-01 04:30N 29°33' W 090°28'3 6.6
2018-Jun-01 04:00N 29°34' W 090°32'3 6.5
2018-Jun-01 03:30N 29°35' W 090°36'3 5.9
2018-Jun-01 03:00N 29°36' W 090°39'3 6.4
2018-Jun-01 02:30N 29°37' W 090°42'3 5.4
2018-Jun-01 02:00N 29°34' W 090°43'0 0.0
2018-Jun-01 01:31N 29°34' W 090°43'0 0.0
2018-Jun-01 01:00N 29°34' W 090°43'2 4.6
2018-Jun-01 00:30N 29°32' W 090°42'3 6.5
2018-Jun-01 00:00N 29°29' W 090°43'3 6.8
2018-May-31 23:30N 29°25' W 090°43'3 0.1
2018-May-30 23:05N 29°23' W 090°44'2 6.1
2018-May-30 22:46N 29°25' W 090°44'2 7.2
2018-May-30 22:30N 29°27' W 090°43'4 7.1
2018-May-30 22:00N 29°30' W 090°43'3 6.9
2018-May-30 21:30N 29°33' W 090°43'1 3.0
2018-May-30 21:00N 29°35' W 090°43'0 0.0
2018-May-30 20:30N 29°35' W 090°43'0 0.0
2018-May-30 20:00N 29°35' W 090°43'0 0.2
2018-May-30 19:30N 29°35' W 090°43'2 4.0
2018-May-30 19:00N 29°34' W 090°45'2 4.0
2018-May-30 18:30N 29°32' W 090°46'4 7.4
2018-May-30 18:00N 29°32' W 090°51'8 0.8
2018-May-30 08:35N 29°36' W 090°58'1 5.9
2018-May-30 08:22N 29°35' W 090°58'2 5.9
2018-May-30 08:00N 29°34' W 090°56'3 5.9
2018-May-30 07:30N 29°32' W 090°53'3 5.7
2018-May-30 06:59N 29°32' W 090°49'3 5.5
2018-May-30 06:30N 29°32' W 090°46'3 5.0
2018-May-30 06:00N 29°34' W 090°44'2 3.7
2018-May-30 05:30N 29°35' W 090°43'2 3.1
2018-May-30 05:00N 29°37' W 090°42'1 2.0
2018-May-30 04:30N 29°36' W 090°41'2 4.3
2018-May-30 04:00N 29°36' W 090°39'3 5.3
2018-May-30 03:29N 29°35' W 090°36'2 5.3
2018-May-30 03:00N 29°34' W 090°33'3 5.5
2018-May-30 02:30N 29°34' W 090°30'2 0.1
2018-May-28 19:10N 29°33' W 090°28'1 7.2
2018-May-28 18:59N 29°34' W 090°29'3 7.3
2018-May-28 18:30N 29°34' W 090°33'3 6.8
2018-May-28 18:00N 29°35' W 090°37'4 7.0
2018-May-28 17:30N 29°36' W 090°40'0 0.2
2018-May-28 17:00N 29°36' W 090°41'0 0.0
2018-May-28 16:30N 29°36' W 090°41'0 0.0
2018-May-28 16:00N 29°36' W 090°41'0 0.0
2018-May-28 15:30N 29°36' W 090°41'1 1.4
2018-May-28 15:00N 29°36' W 090°41'2 4.5
2018-May-28 14:30N 29°35' W 090°43'0 0.1
2018-May-28 14:00N 29°35' W 090°43'0 0.2
2018-May-28 13:30N 29°35' W 090°43'3 5.8
2018-May-28 13:00N 29°33' W 090°45'4 6.8
2018-May-28 12:30N 29°32' W 090°49'4 7.4
2018-May-28 11:53N 29°33' W 090°54'  

Dump ship's entire track history